Portada
METAR-TAF:

METAR-TAF

Aeroports :

Pago Pago, Illes Perifèriques Menors dels EUA

latitud: 14-20S, longitud: 170-43W, altitud: 3 m

Observació

L'informe es va fer fa 49 minuts, a les 22:53 UTC
Vent 8 kt del Est/Sud-Est
Temperatura 30°C
Humitat 84%
Pressió 1009 hPa
Visibilitat: 19.3 km
Escasses núvols a una alçada de 2100 ft, Cumulus congestus.
Núvols disperses a una alçada de 10000 ft
Cel ennuvolat a una alçada de 20000 ft

METAR: NSTU 052253Z 11008KT 12SM FEW021TCU SCT100 BKN200 30/27 A2980 RMK RAE45 TCU W AND OHD SLP091 T03030274

Hora: 12:42 (23:42 UTC)

Pronòstic

L'informe es va fer fa 6 hores i 2 minuts, a les 17:40 UTC
Pronòstic vàlid del 05 a les 18 UTC al 06 a les 18 UTC
Vent 5 kt amb direcció variable
Visibilitat: 10 km
Núvols disperses a una alçada de 1700 ft
Núvols disperses a una alçada de 4000 ft
Cel ennuvolat a una alçada de 20000 ft
xàfecs en les proximitats

TAF: NSTU 051740Z 0518/0618 VRB05KT P6SM VCSH SCT017 SCT040 BKN200

Observacions i pronòstics meteorològics de més de 4000 aeroports (METAR i TAF).

Les estacions disponibles són els punts grocs i vermells al mapa.

Posi el ratolí al punt desitjat per veure el nom de l'estació.

Feu clic per veure les observacions i els pronòstics meteorològics.

Per canviar el mapa: feu clic els botons verds amb una creu de color negre per apropar; al botó verd amb un guió per allunyar la imatge; o en les fletxes verdes per a mapes adjacents.


METAR-TAF: